Time;durP1;ratioP1;P1;durP2;ratioP2;P2;SDS_P1;SDS_P2;PMS_P1;PMS_P2;Temp;Humidity;BMP_temperature;BMP_pressure;BME280_temperature;BME280_humidity;BME280_pressure;Samples;Min_cycle;Max_cycle;Signal;HPM_P1;HPM_P2
2022/02/15 00:00:12;;;;;;;25.77;21.48;;;;;;;;;;4816601;29;92104;-68
2022/02/15 00:02:39;;;;;;;26.13;21.50;;;;;;;;;;4825000;29;95358;-68
2022/02/15 00:05:06;;;;;;;24.95;19.30;;;;;;;;;;4827572;29;94852;-68
2022/02/15 00:07:35;;;;;;;24.35;21.75;;;;;;;;;;4795548;29;92528;-68
2022/02/15 00:10:04;;;;;;;28.23;21.77;;;;;;;;;;4828102;29;92009;-68
2022/02/15 00:12:31;;;;;;;24.40;21.80;;;;;;;;;;4827695;29;94516;-68
2022/02/15 00:14:59;;;;;;;37.75;23.27;;;;;;;;;;4827589;29;94272;-68
2022/02/15 00:17:28;;;;;;;24.77;22.13;;;;;;;;;;4827377;29;92340;-68
2022/02/15 00:19:56;;;;;;;24.38;20.90;;;;;;;;;;4811234;29;91231;-68
2022/02/15 00:22:23;;;;;;;24.58;21.83;;;;;;;;;;4810408;29;95235;-69
2022/02/15 00:24:50;;;;;;;27.40;22.70;;;;;;;;;;4810282;29;94582;-69
2022/02/15 00:27:18;;;;;;;25.52;21.67;;;;;;;;;;4824845;29;92999;-68
2022/02/15 00:29:46;;;;;;;26.80;21.05;;;;;;;;;;4810554;29;92597;-68
2022/02/15 00:32:14;;;;;;;25.17;21.63;;;;;;;;;;4810150;29;93645;-68
2022/02/15 00:34:41;;;;;;;26.35;22.63;;;;;;;;;;4825995;29;92876;-68
2022/02/15 00:37:09;;;;;;;27.25;23.65;;;;;;;;;;4796367;29;93697;-68
2022/02/15 00:39:37;;;;;;;25.40;22.70;;;;;;;;;;4826449;29;92556;-69
2022/02/15 00:42:06;;;;;;;23.80;21.23;;;;;;;;;;4815883;29;93335;-69
2022/02/15 00:44:34;;;;;;;23.17;20.75;;;;;;;;;;4814238;29;93004;-68
2022/02/15 00:47:01;;;;;;;24.50;21.88;;;;;;;;;;4824854;29;92003;-68
2022/02/15 00:49:29;;;;;;;23.55;21.15;;;;;;;;;;4801900;29;92433;-68
2022/02/15 00:51:57;;;;;;;26.33;22.33;;;;;;;;;;4809454;29;97480;-68
2022/02/15 00:54:24;;;;;;;25.63;21.25;;;;;;;;;;4824978;29;95023;-69
2022/02/15 00:56:52;;;;;;;24.65;21.73;;;;;;;;;;4809032;29;92288;-68
2022/02/15 00:59:20;;;;;;;26.65;23.20;;;;;;;;;;4808259;29;92394;-68
2022/02/15 01:01:48;;;;;;;26.75;22.45;;;;;;;;;;4824103;29;93399;-68
2022/02/15 01:04:16;;;;;;;28.13;21.67;;;;;;;;;;4823084;29;93023;-68
2022/02/15 01:06:44;;;;;;;22.77;20.23;;;;;;;;;;4809429;29;92581;-68
2022/02/15 01:09:14;;;;;;;25.75;22.98;;;;;;;;;;4824513;29;91539;-69
2022/02/15 01:11:41;;;;;;;28.77;21.38;;;;;;;;;;4824454;29;93724;-69
2022/02/15 01:14:09;;;;;;;25.48;22.48;;;;;;;;;;4817459;29;96196;-69
2022/02/15 01:16:37;;;;;;;31.40;22.92;;;;;;;;;;4809462;29;93158;-69
2022/02/15 01:19:06;;;;;;;25.52;22.65;;;;;;;;;;4824180;29;92091;-69
2022/02/15 01:21:33;;;;;;;26.67;23.70;;;;;;;;;;4809229;29;94265;-69
2022/02/15 01:24:01;;;;;;;26.40;22.25;;;;;;;;;;4794360;29;95914;-69
2022/02/15 01:26:30;;;;;;;25.58;22.73;;;;;;;;;;4826136;29;92121;-69
2022/02/15 01:28:57;;;;;;;29.02;23.25;;;;;;;;;;4818494;29;92344;-69
2022/02/15 01:31:25;;;;;;;26.08;22.13;;;;;;;;;;4824855;29;93956;-69
2022/02/15 01:33:53;;;;;;;25.23;22.58;;;;;;;;;;4809375;29;93593;-69
2022/02/15 01:36:20;;;;;;;31.25;25.38;;;;;;;;;;4824305;29;92056;-68
2022/02/15 01:38:49;;;;;;;26.77;23.17;;;;;;;;;;4794184;29;92077;-69
2022/02/15 01:41:16;;;;;;;27.80;23.00;;;;;;;;;;4823141;29;97779;-68
2022/02/15 01:43:48;;;;;;;29.58;24.92;;;;;;;;;;4825010;29;94347;-68
2022/02/15 01:46:33;;;;;;;27.35;23.80;;;;;;;;;;4808237;29;92912;-68
2022/02/15 01:49:01;;;;;;;28.35;24.20;;;;;;;;;;4808832;29;92663;-68
2022/02/15 01:51:30;;;;;;;27.70;24.05;;;;;;;;;;4808146;29;96778;-69
2022/02/15 01:53:57;;;;;;;26.75;23.73;;;;;;;;;;4825187;29;93562;-68
2022/02/15 01:56:27;;;;;;;28.42;24.95;;;;;;;;;;4808446;29;91912;-69
2022/02/15 01:58:57;;;;;;;30.15;25.40;;;;;;;;;;4823524;29;91676;-69
2022/02/15 02:01:26;;;;;;;26.80;23.67;;;;;;;;;;4823631;29;96194;-68
2022/02/15 02:07:11;;;;;;;29.58;25.15;;;;;;;;;;4793381;29;92975;-68
2022/02/15 02:09:39;;;;;;;30.15;23.88;;;;;;;;;;4828095;29;91886;-68
2022/02/15 02:12:08;;;;;;;32.35;23.40;;;;;;;;;;4796090;29;96975;-68
2022/02/15 02:14:58;;;;;;;28.67;25.50;;;;;;;;;;4825615;29;94311;-68
2022/02/15 02:17:45;;;;;;;29.23;25.27;;;;;;;;;;4826686;29;91876;-68
2022/02/15 02:20:14;;;;;;;28.52;24.95;;;;;;;;;;4825694;29;92245;-68
2022/02/15 02:22:41;;;;;;;31.30;25.38;;;;;;;;;;4809566;29;93216;-68
2022/02/15 02:25:17;;;;;;;31.42;28.02;;;;;;;;;;4826052;29;94749;-68
2022/02/15 02:27:46;;;;;;;29.35;25.33;;;;;;;;;;4810172;29;92390;-67
2022/02/15 02:30:14;;;;;;;28.55;25.55;;;;;;;;;;4825300;29;92404;-68
2022/02/15 02:32:50;;;;;;;32.67;25.20;;;;;;;;;;4822252;29;97315;-68
2022/02/15 02:35:19;;;;;;;31.92;25.05;;;;;;;;;;4822918;29;97020;-68
2022/02/15 02:37:47;;;;;;;36.85;27.58;;;;;;;;;;4824040;29;92151;-67
2022/02/15 02:40:16;;;;;;;34.47;27.50;;;;;;;;;;4824494;29;92499;-68
2022/02/15 02:42:46;;;;;;;32.13;27.05;;;;;;;;;;4822641;29;96283;-67
2022/02/15 02:45:16;;;;;;;29.92;24.75;;;;;;;;;;4826010;29;95248;-67
2022/02/15 02:47:48;;;;;;;33.88;24.42;;;;;;;;;;4826684;29;91905;-68
2022/02/15 02:50:18;;;;;;;28.20;25.20;;;;;;;;;;4826830;29;91330;-68
2022/02/15 02:52:46;;;;;;;29.60;26.40;;;;;;;;;;4826128;29;95360;-68
2022/02/15 02:55:19;;;;;;;27.08;24.27;;;;;;;;;;4811120;29;96104;-68
2022/02/15 02:57:50;;;;;;;30.70;26.45;;;;;;;;;;4825484;29;92968;-68
2022/02/15 03:00:17;;;;;;;28.30;25.35;;;;;;;;;;4811429;29;92022;-68
2022/02/15 03:03:07;;;;;;;27.20;23.20;;;;;;;;;;4812668;29;96040;-68
2022/02/15 03:05:38;;;;;;;25.92;22.92;;;;;;;;;;4826429;29;92951;-68
2022/02/15 03:08:06;;;;;;;26.42;23.67;;;;;;;;;;4810042;29;92034;-67
2022/02/15 03:10:34;;;;;;;26.30;22.70;;;;;;;;;;4826569;29;92020;-68
2022/02/15 03:13:04;;;;;;;27.38;24.45;;;;;;;;;;4810969;29;96250;-68
2022/02/15 03:15:32;;;;;;;22.60;20.10;;;;;;;;;;4826562;29;96367;-68
2022/02/15 03:18:02;;;;;;;23.90;20.70;;;;;;;;;;4825758;29;91973;-68
2022/02/15 03:20:31;;;;;;;23.38;21.00;;;;;;;;;;4827181;29;91786;-68
2022/02/15 03:22:59;;;;;;;22.85;20.45;;;;;;;;;;4824316;29;97204;-68
2022/02/15 03:25:29;;;;;;;21.77;19.77;;;;;;;;;;4825682;29;97306;-68
2022/02/15 03:27:57;;;;;;;21.63;19.45;;;;;;;;;;4810308;29;91787;-67
2022/02/15 03:30:27;;;;;;;19.50;17.63;;;;;;;;;;4825662;29;93308;-67
2022/02/15 03:32:55;;;;;;;20.67;18.77;;;;;;;;;;4810579;29;94560;-67
2022/02/15 03:35:23;;;;;;;21.05;18.98;;;;;;;;;;4825102;29;95580;-67
2022/02/15 03:38:07;;;;;;;19.67;17.67;;;;;;;;;;4812785;29;91902;-67
2022/02/15 03:43:35;;;;;;;18.40;16.50;;;;;;;;;;4825720;29;94153;-67
2022/02/15 03:46:03;;;;;;;17.88;16.30;;;;;;;;;;4809514;29;96168;-67
2022/02/15 03:48:36;;;;;;;17.38;15.88;;;;;;;;;;4825374;29;92922;-68
2022/02/15 03:51:04;;;;;;;19.00;17.20;;;;;;;;;;4825678;29;92007;-68
2022/02/15 03:53:35;;;;;;;19.23;17.45;;;;;;;;;;4825166;29;97178;-68
2022/02/15 03:56:04;;;;;;;18.23;16.63;;;;;;;;;;4823865;29;95856;-68
2022/02/15 03:58:32;;;;;;;19.63;17.60;;;;;;;;;;4825328;29;91867;-67
2022/02/15 04:01:04;;;;;;;19.27;17.58;;;;;;;;;;4810340;29;92432;-67
2022/02/15 04:03:33;;;;;;;19.95;18.08;;;;;;;;;;4809267;29;92087;-67
2022/02/15 04:06:00;;;;;;;18.42;16.73;;;;;;;;;;4792920;29;96198;-68
2022/02/15 04:08:29;;;;;;;21.30;19.30;;;;;;;;;;4822213;29;91969;-68
2022/02/15 04:10:56;;;;;;;20.58;18.73;;;;;;;;;;4807280;29;92413;-67
2022/02/15 04:13:30;;;;;;;17.70;16.10;;;;;;;;;;4822909;29;93917;-68
2022/02/15 04:15:59;;;;;;;19.13;17.45;;;;;;;;;;4806534;29;96596;-67
2022/02/15 04:18:27;;;;;;;18.42;16.95;;;;;;;;;;4806104;29;92404;-67
2022/02/15 04:20:56;;;;;;;19.35;17.58;;;;;;;;;;4822730;29;92078;-67
2022/02/15 04:23:23;;;;;;;19.10;17.38;;;;;;;;;;4808999;29;93624;-68
2022/02/15 04:25:51;;;;;;;17.70;16.20;;;;;;;;;;4808967;29;96093;-67
2022/02/15 04:28:36;;;;;;;18.20;16.63;;;;;;;;;;4824596;29;92425;-67
2022/02/15 04:31:15;;;;;;;17.75;16.30;;;;;;;;;;4821994;29;91617;-68
2022/02/15 04:33:42;;;;;;;17.20;15.70;;;;;;;;;;4820466;29;96467;-68
2022/02/15 04:36:11;;;;;;;18.00;16.55;;;;;;;;;;4824251;29;96356;-68
2022/02/15 04:38:38;;;;;;;17.90;16.40;;;;;;;;;;4820393;29;93272;-68
2022/02/15 04:41:06;;;;;;;17.65;16.08;;;;;;;;;;4790711;29;92093;-68
2022/02/15 04:43:37;;;;;;;17.75;16.25;;;;;;;;;;4807233;29;96119;-68
2022/02/15 04:46:14;;;;;;;16.45;14.95;;;;;;;;;;4811827;29;95723;-67
2022/02/15 04:48:42;;;;;;;16.70;15.30;;;;;;;;;;4812464;29;92698;-67
2022/02/15 04:51:14;;;;;;;16.55;15.23;;;;;;;;;;4812574;29;92612;-71
2022/02/15 04:53:48;;;;;;;17.13;15.65;;;;;;;;;;4812532;29;96867;-69
2022/02/15 04:56:16;;;;;;;17.55;16.10;;;;;;;;;;4809726;29;95231;-68
2022/02/15 04:58:44;;;;;;;16.35;14.95;;;;;;;;;;4815976;29;92003;-68
2022/02/15 05:01:14;;;;;;;17.80;16.30;;;;;;;;;;4812223;29;92063;-68
2022/02/15 05:06:54;;;;;;;16.55;15.05;;;;;;;;;;4826922;29;96753;-68
2022/02/15 05:09:22;;;;;;;16.30;14.90;;;;;;;;;;4811362;29;92100;-68
2022/02/15 05:11:50;;;;;;;17.52;15.88;;;;;;;;;;4796121;29;92035;-68
2022/02/15 05:14:21;;;;;;;16.52;15.13;;;;;;;;;;4810400;29;96763;-68
2022/02/15 05:16:50;;;;;;;16.90;15.50;;;;;;;;;;4809324;29;96166;-67
2022/02/15 05:19:22;;;;;;;17.13;15.63;;;;;;;;;;4809375;29;92023;-68
2022/02/15 05:21:56;;;;;;;16.70;15.27;;;;;;;;;;4810783;29;91657;-67
2022/02/15 05:24:24;;;;;;;17.63;16.13;;;;;;;;;;4808698;29;96705;-66
2022/02/15 05:26:56;;;;;;;17.40;15.95;;;;;;;;;;4799710;29;95579;-68
2022/02/15 05:29:43;;;;;;;16.92;15.60;;;;;;;;;;4810704;29;93091;-68
2022/02/15 05:32:44;;;;;;;17.75;16.17;;;;;;;;;;4819727;29;92416;-67
2022/02/15 05:35:11;;;;;;;17.88;16.38;;;;;;;;;;4808103;29;96710;-67
2022/02/15 05:37:44;;;;;;;17.08;15.57;;;;;;;;;;4810579;29;96356;-67
2022/02/15 05:40:14;;;;;;;17.15;15.75;;;;;;;;;;4811655;29;92053;-67
2022/02/15 05:42:53;;;;;;;18.25;16.65;;;;;;;;;;4825428;29;92039;-67
2022/02/15 05:45:20;;;;;;;18.60;17.10;;;;;;;;;;4818094;29;95067;-67
2022/02/15 05:48:08;;;;;;;17.58;15.90;;;;;;;;;;4812855;29;91283;-67
2022/02/15 05:50:51;;;;;;;18.00;16.40;;;;;;;;;;4826849;29;91862;-67
2022/02/15 05:53:31;;;;;;;16.42;15.07;;;;;;;;;;4799502;29;91981;-67
2022/02/15 05:56:03;;;;;;;17.00;15.50;;;;;;;;;;4825412;29;95197;-67
2022/02/15 05:58:49;;;;;;;16.48;15.07;;;;;;;;;;4827292;29;92929;-67
2022/02/15 06:01:49;;;;;;;15.27;14.05;;;;;;;;;;4824099;29;92159;-68
2022/02/15 06:04:18;;;;;;;14.52;13.40;;;;;;;;;;4793040;29;92100;-68
2022/02/15 06:06:52;;;;;;;15.07;13.93;;;;;;;;;;4826477;29;96961;-70
2022/02/15 06:09:19;;;;;;;13.95;12.90;;;;;;;;;;4811356;29;94836;-69
2022/02/15 06:11:48;;;;;;;14.30;13.20;;;;;;;;;;4812068;29;92166;-70
2022/02/15 06:14:20;;;;;;;14.43;13.20;;;;;;;;;;4811948;29;91228;-70
2022/02/15 06:16:52;;;;;;;13.63;12.52;;;;;;;;;;4811327;29;95737;-69
2022/02/15 06:19:27;;;;;;;;;;;;;;;;;;4826126;29;94963;-70
2022/02/15 06:21:59;;;;;;;13.77;12.57;;;;;;;;;;4841627;29;93623;-70
2022/02/15 06:24:37;;;;;;;12.60;11.60;;;;;;;;;;4811492;29;91982;-70
2022/02/15 06:27:38;;;;;;;12.43;11.43;;;;;;;;;;4821255;29;92604;-69
2022/02/15 06:30:19;;;;;;;13.77;12.68;;;;;;;;;;4823058;29;95485;-69
2022/02/15 06:32:56;;;;;;;13.88;12.75;;;;;;;;;;4805657;29;92282;-69
2022/02/15 06:35:29;;;;;;;14.02;12.98;;;;;;;;;;4820002;29;92427;-70
2022/02/15 06:38:10;;;;;;;13.00;11.90;;;;;;;;;;4818373;29;95154;-69
2022/02/15 06:40:56;;;;;;;13.40;12.30;;;;;;;;;;4821885;29;95021;-69
2022/02/15 06:43:38;;;;;;;12.75;11.73;;;;;;;;;;4818615;29;92177;-68
2022/02/15 06:46:11;;;;;;;13.43;12.43;;;;;;;;;;4809143;29;92063;-68
2022/02/15 06:48:43;;;;;;;12.25;11.45;;;;;;;;;;4824090;29;96903;-69
2022/02/15 06:51:23;;;;;;;11.82;10.88;;;;;;;;;;4792867;29;94049;-69
2022/02/15 06:54:00;;;;;;;11.27;10.55;;;;;;;;;;4807213;29;92120;-69
2022/02/15 06:56:55;;;;;;;11.18;10.38;;;;;;;;;;4809301;29;92106;-69
2022/02/15 06:59:31;;;;;;;10.55;9.77;;;;;;;;;;4839421;29;93649;-69
2022/02/15 07:02:04;;;;;;;11.73;10.93;;;;;;;;;;4822970;29;92219;-67
2022/02/15 07:04:36;;;;;;;12.15;11.25;;;;;;;;;;4809270;29;92268;-69
2022/02/15 07:07:03;;;;;;;10.55;9.80;;;;;;;;;;4809072;29;91324;-68
2022/02/15 07:09:32;;;;;;;11.77;10.95;;;;;;;;;;4820296;29;96177;-68
2022/02/15 07:12:13;;;;;;;10.85;10.10;;;;;;;;;;4815567;29;94907;-68
2022/02/15 07:14:58;;;;;;;12.60;11.68;;;;;;;;;;4825019;29;93163;-69
2022/02/15 07:17:42;;;;;;;12.05;11.15;;;;;;;;;;4810770;29;92055;-68
2022/02/15 07:20:19;;;;;;;13.27;12.07;;;;;;;;;;4804982;29;96786;-68
2022/02/15 07:23:10;;;;;;;12.43;11.50;;;;;;;;;;4802208;29;92452;-68
2022/02/15 07:26:08;;;;;;;12.38;11.48;;;;;;;;;;4758197;29;91970;-70
2022/02/15 07:28:58;;;;;;;12.02;11.13;;;;;;;;;;4827302;29;91929;-68
2022/02/15 07:31:29;;;;;;;13.70;12.60;;;;;;;;;;4810333;29;96556;-69
2022/02/15 07:33:56;;;;;;;13.80;12.80;;;;;;;;;;4812676;29;96431;-69
2022/02/15 07:36:24;;;;;;;14.10;13.07;;;;;;;;;;4799536;29;91997;-68
2022/02/15 07:38:52;;;;;;;14.32;13.20;;;;;;;;;;4816639;29;92208;-69
2022/02/15 07:41:19;;;;;;;15.00;13.90;;;;;;;;;;4824388;29;96078;-68
2022/02/15 07:43:48;;;;;;;14.30;13.20;;;;;;;;;;4804944;29;95378;-68
2022/02/15 07:46:17;;;;;;;14.40;13.30;;;;;;;;;;4825021;29;92200;-69
2022/02/15 07:48:44;;;;;;;13.75;12.68;;;;;;;;;;4814242;29;92091;-69
2022/02/15 07:51:11;;;;;;;13.65;12.65;;;;;;;;;;4807702;29;94332;-69
2022/02/15 07:53:38;;;;;;;13.55;12.55;;;;;;;;;;4822150;29;94536;-68
2022/02/15 07:56:06;;;;;;;14.48;13.38;;;;;;;;;;4824170;29;92266;-68
2022/02/15 07:58:33;;;;;;;14.05;12.95;;;;;;;;;;4829751;29;92865;-70
2022/02/15 08:01:01;;;;;;;14.23;12.93;;;;;;;;;;4818532;29;93293;-70
2022/02/15 08:03:29;;;;;;;13.50;12.25;;;;;;;;;;4825740;29;94301;-70
2022/02/15 08:05:56;;;;;;;13.75;12.75;;;;;;;;;;4810323;29;93040;-70
2022/02/15 08:08:25;;;;;;;14.15;13.05;;;;;;;;;;4841147;29;92403;-70
2022/02/15 08:10:56;;;;;;;13.45;12.45;;;;;;;;;;4827492;29;94980;-71
2022/02/15 08:13:33;;;;;;;13.13;12.07;;;;;;;;;;4823273;29;94222;-69
2022/02/15 08:16:00;;;;;;;14.30;13.20;;;;;;;;;;4829480;29;91949;-69
2022/02/15 08:18:28;;;;;;;13.70;12.60;;;;;;;;;;4829308;29;92018;-69
2022/02/15 08:20:56;;;;;;;14.93;13.77;;;;;;;;;;4829186;29;94357;-69
2022/02/15 08:23:23;;;;;;;14.70;13.57;;;;;;;;;;4823565;29;92851;-69
2022/02/15 08:25:53;;;;;;;14.15;12.98;;;;;;;;;;4813506;29;92001;-69
2022/02/15 08:28:21;;;;;;;15.30;14.10;;;;;;;;;;4816834;29;92224;-68
2022/02/15 08:30:48;;;;;;;15.05;13.82;;;;;;;;;;4811585;29;95076;-68
2022/02/15 08:33:16;;;;;;;19.48;17.67;;;;;;;;;;4824651;29;95169;-69
2022/02/15 08:35:43;;;;;;;17.05;15.30;;;;;;;;;;4813897;29;92571;-68
2022/02/15 08:38:11;;;;;;;16.90;15.50;;;;;;;;;;4813643;29;91995;-69
2022/02/15 08:40:38;;;;;;;16.95;15.65;;;;;;;;;;4823376;29;94556;-68
2022/02/15 08:43:05;;;;;;;16.38;15.07;;;;;;;;;;4827336;29;94988;-69
2022/02/15 08:45:33;;;;;;;17.65;16.25;;;;;;;;;;4827763;29;92038;-69
2022/02/15 08:48:00;;;;;;;14.32;13.27;;;;;;;;;;4811790;29;91711;-69
2022/02/15 08:50:28;;;;;;;14.07;12.95;;;;;;;;;;4827871;29;95002;-69
2022/02/15 08:52:55;;;;;;;13.27;12.30;;;;;;;;;;4826598;29;94230;-69
2022/02/15 08:55:22;;;;;;;14.68;13.63;;;;;;;;;;4805552;29;92985;-69
2022/02/15 08:57:50;;;;;;;15.15;13.95;;;;;;;;;;4812093;29;92037;-69
2022/02/15 09:00:18;;;;;;;14.65;13.35;;;;;;;;;;4812178;29;95281;-69
2022/02/15 09:02:47;;;;;;;14.85;13.68;;;;;;;;;;4821775;29;93319;-69
2022/02/15 09:05:14;;;;;;;15.13;14.02;;;;;;;;;;4812081;29;91962;-69
2022/02/15 09:07:42;;;;;;;15.23;13.98;;;;;;;;;;4819766;29;91878;-69
2022/02/15 09:10:09;;;;;;;14.25;13.15;;;;;;;;;;4828422;29;94485;-69
2022/02/15 09:12:36;;;;;;;14.57;13.40;;;;;;;;;;4828732;29;94617;-69
2022/02/15 09:15:06;;;;;;;15.35;14.15;;;;;;;;;;4812963;29;92164;-70
2022/02/15 09:17:37;;;;;;;15.57;14.38;;;;;;;;;;4812861;29;92107;-69
2022/02/15 09:20:07;;;;;;;15.15;13.95;;;;;;;;;;4811637;29;95540;-69
2022/02/15 09:22:35;;;;;;;14.80;13.70;;;;;;;;;;4828448;29;95653;-70
2022/02/15 09:25:03;;;;;;;15.00;13.70;;;;;;;;;;4811565;29;91941;-69
2022/02/15 09:27:31;;;;;;;15.30;14.18;;;;;;;;;;4827465;29;91926;-70
2022/02/15 09:29:58;;;;;;;14.65;13.43;;;;;;;;;;4826851;29;93728;-70
2022/02/15 09:32:26;;;;;;;15.93;14.63;;;;;;;;;;4823244;29;94950;-70
2022/02/15 09:34:56;;;;;;;14.38;13.27;;;;;;;;;;4810532;29;91949;-70
2022/02/15 09:37:25;;;;;;;15.57;14.40;;;;;;;;;;4827595;29;92367;-70
2022/02/15 09:39:55;;;;;;;15.25;14.02;;;;;;;;;;4827588;29;93715;-70
2022/02/15 09:42:24;;;;;;;17.17;15.82;;;;;;;;;;4827619;29;94849;-70
2022/02/15 09:44:52;;;;;;;15.40;14.20;;;;;;;;;;4799274;29;93023;-69
2022/02/15 09:47:24;;;;;;;15.27;13.95;;;;;;;;;;4828162;29;91997;-70
2022/02/15 09:49:53;;;;;;;15.90;14.60;;;;;;;;;;4817803;29;95342;-70
2022/02/15 09:52:26;;;;;;;15.68;14.40;;;;;;;;;;4823881;29;94278;-71
2022/02/15 09:54:55;;;;;;;15.48;13.93;;;;;;;;;;4819704;29;91996;-71
2022/02/15 09:57:23;;;;;;;15.30;14.00;;;;;;;;;;4811853;29;92405;-71
2022/02/15 09:59:52;;;;;;;15.43;14.23;;;;;;;;;;4826335;29;94425;-71
2022/02/15 10:02:34;;;;;;;15.40;14.20;;;;;;;;;;4825860;29;94196;-71
2022/02/15 10:05:04;;;;;;;15.55;14.38;;;;;;;;;;4819027;29;92065;-71
2022/02/15 10:07:32;;;;;;;15.98;14.63;;;;;;;;;;4827321;29;92369;-71
2022/02/15 10:09:59;;;;;;;15.13;13.93;;;;;;;;;;4810909;29;95188;-71
2022/02/15 10:12:34;;;;;;;15.20;14.00;;;;;;;;;;4827678;29;94998;-71
2022/02/15 10:15:02;;;;;;;;;;;;;;;;;;4811100;29;92205;-71
2022/02/15 10:17:29;;;;;;;15.30;14.10;;;;;;;;;;4829636;29;92407;-71
2022/02/15 10:19:57;;;;;;;16.67;15.27;;;;;;;;;;4798620;29;94428;-71
2022/02/15 10:22:24;;;;;;;17.42;16.02;;;;;;;;;;4810954;29;94774;-71
2022/02/15 10:24:54;;;;;;;16.55;15.07;;;;;;;;;;4818546;29;91858;-72
2022/02/15 10:27:31;;;;;;;13.82;12.77;;;;;;;;;;4826536;29;91303;-71
2022/02/15 10:29:59;;;;;;;15.43;14.18;;;;;;;;;;4809653;29;94233;-71
2022/02/15 10:32:26;;;;;;;15.32;14.15;;;;;;;;;;4824321;29;95251;-71
2022/02/15 10:34:56;;;;;;;14.93;13.68;;;;;;;;;;4810209;29;92822;-71
2022/02/15 10:37:28;;;;;;;14.35;13.25;;;;;;;;;;4825895;29;92035;-71
2022/02/15 10:40:13;;;;;;;14.68;13.57;;;;;;;;;;4826048;29;95598;-71
2022/02/15 10:42:41;;;;;;;13.07;12.10;;;;;;;;;;4839291;29;94416;-71
2022/02/15 10:45:09;;;;;;;13.93;12.93;;;;;;;;;;4811324;29;91908;-71
2022/02/15 10:47:42;;;;;;;13.98;12.88;;;;;;;;;;4806082;29;92421;-71
2022/02/15 10:50:12;;;;;;;14.35;13.25;;;;;;;;;;4826201;29;94371;-72
2022/02/15 10:52:40;;;;;;;13.80;12.60;;;;;;;;;;4826598;29;95834;-71
2022/02/15 10:55:09;;;;;;;15.05;13.75;;;;;;;;;;4826883;29;91963;-71
2022/02/15 10:57:37;;;;;;;14.35;13.25;;;;;;;;;;4827120;29;92098;-71
2022/02/15 11:00:12;;;;;;;12.50;11.60;;;;;;;;;;4824969;29;94730;-71
2022/02/15 11:02:41;;;;;;;13.18;12.18;;;;;;;;;;4822421;29;95634;-71
2022/02/15 11:05:12;;;;;;;14.20;13.00;;;;;;;;;;4826186;29;91911;-71
2022/02/15 11:07:40;;;;;;;13.95;12.95;;;;;;;;;;4826894;29;91983;-71
2022/02/15 11:10:45;;;;;;;14.65;13.50;;;;;;;;;;4824334;29;94402;-72
2022/02/15 11:13:13;;;;;;;13.68;12.65;;;;;;;;;;4840759;29;95005;-72
2022/02/15 11:15:41;;;;;;;13.77;12.77;;;;;;;;;;4825888;29;92576;-73
2022/02/15 11:18:10;;;;;;;14.20;12.88;;;;;;;;;;4825952;29;91295;-72
2022/02/15 11:20:51;;;;;;;15.15;13.93;;;;;;;;;;4825761;29;94227;-72
2022/02/15 11:23:30;;;;;;;13.18;12.13;;;;;;;;;;4825026;29;95109;-72
2022/02/15 11:26:06;;;;;;;13.60;12.50;;;;;;;;;;4823542;29;92751;-72
2022/02/15 11:28:33;;;;;;;14.13;13.02;;;;;;;;;;4826128;29;92054;-72
2022/02/15 11:31:02;;;;;;;13.93;12.82;;;;;;;;;;4827799;29;94715;-72
2022/02/15 11:33:59;;;;;;;14.63;13.52;;;;;;;;;;4827739;29;92691;-72
2022/02/15 11:36:26;;;;;;;14.05;13.05;;;;;;;;;;4826531;29;92122;-72
2022/02/15 11:38:57;;;;;;;14.00;12.88;;;;;;;;;;4812687;29;92068;-70
2022/02/15 11:41:26;;;;;;;15.95;14.57;;;;;;;;;;4827381;29;94212;-72
2022/02/15 11:43:57;;;;;;;16.83;15.32;;;;;;;;;;4829674;29;95030;-70
2022/02/15 11:46:33;;;;;;;13.77;12.55;;;;;;;;;;4829341;29;92109;-71
2022/02/15 11:49:14;;;;;;;13.98;12.70;;;;;;;;;;4829090;29;92141;-72
2022/02/15 11:51:45;;;;;;;14.32;13.23;;;;;;;;;;4828126;29;95916;-72
2022/02/15 11:54:16;;;;;;;13.40;12.40;;;;;;;;;;4827495;29;95386;-72
2022/02/15 11:56:51;;;;;;;12.32;11.43;;;;;;;;;;4829182;29;91885;-71
2022/02/15 11:59:24;;;;;;;13.65;12.65;;;;;;;;;;4829581;29;92684;-71
2022/02/15 12:02:03;;;;;;;14.40;13.30;;;;;;;;;;4809742;29;95713;-70
2022/02/15 12:04:31;;;;;;;13.48;12.48;;;;;;;;;;4826411;29;93940;-71
2022/02/15 12:07:00;;;;;;;14.30;13.00;;;;;;;;;;4827826;29;91966;-70
2022/02/15 12:09:31;;;;;;;15.27;14.07;;;;;;;;;;4830386;29;91224;-70
2022/02/15 12:12:12;;;;;;;14.10;12.50;;;;;;;;;;4828784;29;94574;-70
2022/02/15 12:14:40;;;;;;;15.07;13.82;;;;;;;;;;4827671;29;94288;-70
2022/02/15 12:17:08;;;;;;;15.85;14.43;;;;;;;;;;4826638;29;92834;-70
2022/02/15 12:19:40;;;;;;;15.65;14.32;;;;;;;;;;4829815;29;91900;-70
2022/02/15 12:22:20;;;;;;;15.63;14.43;;;;;;;;;;4812018;29;94452;-70
2022/02/15 12:24:58;;;;;;;16.63;15.32;;;;;;;;;;4828075;29;95805;-69
2022/02/15 12:27:27;;;;;;;14.90;13.70;;;;;;;;;;4812253;29;91964;-70
2022/02/15 12:29:56;;;;;;;18.95;17.25;;;;;;;;;;4828288;29;92046;-70
2022/02/15 12:32:29;;;;;;;17.50;15.90;;;;;;;;;;4828094;29;94560;-70
2022/02/15 12:34:57;;;;;;;18.05;16.55;;;;;;;;;;4828826;29;94325;-71
2022/02/15 12:37:28;;;;;;;16.25;14.90;;;;;;;;;;4827488;29;91941;-70
2022/02/15 12:40:00;;;;;;;18.98;17.23;;;;;;;;;;4820102;29;92167;-70
2022/02/15 12:42:29;;;;;;;18.13;16.58;;;;;;;;;;4823672;29;93658;-70
2022/02/15 12:45:06;;;;;;;16.42;14.98;;;;;;;;;;4818866;29;93890;-70
2022/02/15 12:47:35;;;;;;;17.33;15.80;;;;;;;;;;4810805;29;91900;-70
2022/02/15 12:50:03;;;;;;;16.25;14.95;;;;;;;;;;4828154;29;92045;-71
2022/02/15 12:52:34;;;;;;;17.10;15.68;;;;;;;;;;4815948;29;94211;-70
2022/02/15 12:55:15;;;;;;;17.70;16.10;;;;;;;;;;4811740;29;94745;-71
2022/02/15 12:57:51;;;;;;;15.18;13.98;;;;;;;;;;4829364;29;91873;-70
2022/02/15 13:00:20;;;;;;;17.00;15.60;;;;;;;;;;4829278;29;91129;-70
2022/02/15 13:02:50;;;;;;;17.25;15.80;;;;;;;;;;4821153;29;94553;-70
2022/02/15 13:05:32;;;;;;;17.95;16.35;;;;;;;;;;4809535;29;94398;-70
2022/02/15 13:07:59;;;;;;;16.98;15.48;;;;;;;;;;4812981;29;92845;-70
2022/02/15 13:10:27;;;;;;;16.13;14.75;;;;;;;;;;4812355;29;92084;-70
2022/02/15 13:13:09;;;;;;;17.30;15.75;;;;;;;;;;4810117;29;94205;-70
2022/02/15 13:15:36;;;;;;;18.13;16.58;;;;;;;;;;4803266;29;94413;-70
2022/02/15 13:18:07;;;;;;;15.38;14.07;;;;;;;;;;4828470;29;92016;-71
2022/02/15 13:20:39;;;;;;;16.13;14.73;;;;;;;;;;4829359;29;91921;-70
2022/02/15 13:23:10;;;;;;;15.05;13.85;;;;;;;;;;4827037;29;94891;-71
2022/02/15 13:25:48;;;;;;;16.27;14.80;;;;;;;;;;4828760;29;94410;-71
2022/02/15 13:28:17;;;;;;;16.65;15.25;;;;;;;;;;4826835;29;92011;-70
2022/02/15 13:30:47;;;;;;;14.13;12.93;;;;;;;;;;4828323;29;92022;-70
2022/02/15 13:33:17;;;;;;;15.48;13.48;;;;;;;;;;4818032;29;95565;-70
2022/02/15 13:35:57;;;;;;;13.35;12.25;;;;;;;;;;4826746;29;95208;-71
2022/02/15 13:38:25;;;;;;;13.18;11.85;;;;;;;;;;4819943;29;91758;-71
2022/02/15 13:40:52;;;;;;;13.75;12.65;;;;;;;;;;4818087;29;92000;-70
2022/02/15 13:43:26;;;;;;;12.95;11.65;;;;;;;;;;4827847;29;93453;-70
2022/02/15 13:45:54;;;;;;;12.98;11.88;;;;;;;;;;4811741;29;94376;-70
2022/02/15 13:48:22;;;;;;;14.32;13.02;;;;;;;;;;4825262;29;91963;-70
2022/02/15 13:50:52;;;;;;;13.77;12.57;;;;;;;;;;4828439;29;91215;-71
2022/02/15 13:53:22;;;;;;;15.27;14.07;;;;;;;;;;4826558;29;94525;-71
2022/02/15 13:55:50;;;;;;;13.77;12.57;;;;;;;;;;4825465;29;95789;-71
2022/02/15 13:58:18;;;;;;;14.65;13.35;;;;;;;;;;4827913;29;93084;-69
2022/02/15 14:00:45;;;;;;;13.88;12.70;;;;;;;;;;4827983;29;92118;-71
2022/02/15 14:03:13;;;;;;;13.88;12.75;;;;;;;;;;4820805;29;93873;-70
2022/02/15 14:05:40;;;;;;;9.90;9.10;;;;;;;;;;4826852;29;94158;-70
2022/02/15 14:08:08;;;;;;;8.82;8.00;;;;;;;;;;4809629;29;92155;-71
2022/02/15 14:10:35;;;;;;;7.10;6.45;;;;;;;;;;4827407;29;92098;-70
2022/02/15 14:13:03;;;;;;;5.40;4.47;;;;;;;;;;4811150;29;94448;-71
2022/02/15 14:15:31;;;;;;;4.35;4.05;;;;;;;;;;4828559;29;94454;-71
2022/02/15 14:18:00;;;;;;;4.80;4.32;;;;;;;;;;4796810;29;91905;-70
2022/02/15 14:20:29;;;;;;;4.88;4.47;;;;;;;;;;4812146;29;91990;-70
2022/02/15 14:22:57;;;;;;;5.15;4.75;;;;;;;;;;4827637;29;95537;-70
2022/02/15 14:25:25;;;;;;;4.10;3.80;;;;;;;;;;4827649;29;95344;-70
2022/02/15 14:27:55;;;;;;;4.60;4.20;;;;;;;;;;4828359;29;91798;-70
2022/02/15 14:30:22;;;;;;;5.15;4.68;;;;;;;;;;4812165;29;92032;-71
2022/02/15 14:32:53;;;;;;;4.28;3.88;;;;;;;;;;4789411;29;94480;-70
2022/02/15 14:35:20;;;;;;;6.22;4.78;;;;;;;;;;4825444;29;94341;-71
2022/02/15 14:37:48;;;;;;;4.63;4.22;;;;;;;;;;4820719;29;92058;-70
2022/02/15 14:40:19;;;;;;;5.22;4.72;;;;;;;;;;4812071;29;91283;-70
2022/02/15 14:42:47;;;;;;;5.65;5.18;;;;;;;;;;4827822;29;93327;-70
2022/02/15 14:45:14;;;;;;;6.15;5.65;;;;;;;;;;4827374;29;95184;-70
2022/02/15 14:47:42;;;;;;;5.75;5.25;;;;;;;;;;4827527;29;92862;-70
2022/02/15 14:50:12;;;;;;;7.35;6.65;;;;;;;;;;4828145;29;92012;-70